• Join FlightAware (Why Join?)
  • Login
  • US Flag 
10:09PM EDT


 

Airport Tracker/Info


-or-


 

Live Flight TrackerFlight Track Log ✈ N6593M ✈ 31-Jul-2013 ✈ KORF - KGAI

Flight Track Log - Related Links

Times and Time Zones

All times are in EDT time to prevent confusion due to time zone crossing. See the N6593M flight status page for this flight to view local times or setup timezone preferences in your user account.

Time Position Orientation Groundspeed Altitude Reporting Facility
EDT Latitude Longitude Course Direction KTS MPH feet Rate Location/Type
08:07AM 36.8992 -76.2022 321° Northwest 123 142 400  Level Washington Center
08:08AM 36.9222 -76.2258 321° Northwest 128 147 1,800 1,200 Climbing Washington Center
08:10AM 36.9197 -76.2700 266° West 123 142 3,100 1,140 Climbing Washington Center
08:11AM 36.9258 -76.3089 281° West 122 140 4,200 540 Climbing Washington Center
08:16AM 37.1060 -76.4680 281° West 162 186 6,800 420 Climbing FlightAware
08:16AM 37.1160 -76.4750 331° Northwest 162 186 6,800  Level FlightAware
08:17AM 37.1320 -76.4860 331° Northwest 163 188 6,800  Level FlightAware
08:17AM 37.1440 -76.4950 329° Northwest 163 188 6,800  Level FlightAware
08:17AM 37.1560 -76.5030 332° Northwest 163 188 6,800  Level FlightAware
08:18AM 37.1720 -76.5140 331° Northwest 163 188 6,800  Level FlightAware
08:18AM 37.1790 -76.5190 330° Northwest 163 188 6,800  Level FlightAware
08:18AM 37.1950 -76.5310 329° Northwest 162 186 6,800  Level FlightAware
08:19AM 37.2070 -76.5390 332° Northwest 161 185 6,800  Level FlightAware
08:19AM 37.2220 -76.5490 332° Northwest 161 185 6,800  Level FlightAware
08:19AM 37.2330 -76.5580 327° Northwest 161 185 6,800  Level FlightAware
08:20AM 37.2480 -76.5680 332° Northwest 161 185 6,800  Level FlightAware
08:20AM 37.2610 -76.5770 331° Northwest 161 185 6,800  Level FlightAware
08:21AM 37.2770 -76.5890 329° Northwest 161 185 6,800  Level FlightAware
08:21AM 37.2880 -76.5970 330° Northwest 161 185 6,800  Level FlightAware
08:21AM 37.3040 -76.6080 331° Northwest 161 185 6,800  Level FlightAware
08:22AM 37.3160 -76.6170 329° Northwest 160 184 6,800  Level FlightAware
08:22AM 37.3330 -76.6290 331° Northwest 160 184 6,800  Level FlightAware
08:22AM 37.3490 -76.6400 331° Northwest 160 184 6,800  Level FlightAware
08:23AM 37.3650 -76.6510 331° Northwest 161 185 6,800  Level FlightAware
08:23AM 37.3800 -76.6620 330° Northwest 161 185 6,800 60 Level FlightAware
08:25AM 37.4500 -76.7000 330° Northwest 166 191 7,000 60 Climbing Potomac TRACON
08:26AM 37.4833 -76.7167 338° Northwest 163 188 7,000  Level Potomac TRACON
08:27AM 37.5333 -76.7000 15° North 159 183 7,000  Level Potomac TRACON
08:28AM 37.5667 -76.7000 360° North 162 186 7,000  Level Potomac TRACON
08:29AM 37.6167 -76.7000 360° North 162 186 7,000  Level Potomac TRACON
08:30AM 37.6667 -76.7000 360° North 164 189 7,000  Level Potomac TRACON
08:31AM 37.7000 -76.7000 360° North 170 196 7,000 -60 Level Potomac TRACON
08:36AM 37.9560 -76.6750 360° North 150 173 6,800 -60 Descending FlightAware
08:37AM 37.9850 -76.6730 North 150 173 6,800  Level FlightAware
08:37AM 38.0010 -76.6720 North 150 173 6,800 120 Level FlightAware
08:38AM 38.0475 -76.6728 North 160 184 7,000  Climbing Washington Center
08:44AM 38.2770 -76.5390 North 163 188 6,800 -60 Descending FlightAware
08:44AM 38.2950 -76.5270 28° Northeast 163 188 6,800  Level FlightAware
08:45AM 38.3040 -76.5200 31° Northeast 163 188 6,800  Level FlightAware
08:45AM 38.3220 -76.5080 28° Northeast 163 188 6,800  Level FlightAware
08:46AM 38.3670 -76.4750 30° Northeast 162 186 6,800  Level FlightAware
08:47AM 38.4050 -76.4490 30° Northeast 162 186 6,800  Level FlightAware
08:48AM 38.4240 -76.4350 30° Northeast 162 186 6,800  Level FlightAware
08:48AM 38.4080 -76.4460 208° Southwest 162 186 6,800  Level FlightAware
08:49AM 38.4700 -76.4020 29° Northeast 162 186 6,800  Level FlightAware
08:49AM 38.4870 -76.3910 27° Northeast 163 188 6,800  Level FlightAware
08:50AM 38.5000 -76.3810 31° Northeast 163 188 6,800  Level FlightAware
08:50AM 38.5140 -76.3720 27° Northeast 163 188 6,800  Level FlightAware
08:50AM 38.5290 -76.3610 30° Northeast 163 188 6,800  Level FlightAware
08:51AM 38.5140 -76.3720 210° Southwest 162 186 6,800  Level FlightAware
08:52AM 38.5860 -76.3200 29° Northeast 163 188 6,800  Level FlightAware
08:52AM 38.6010 -76.3090 30° Northeast 163 188 6,800  Level FlightAware
08:53AM 38.6150 -76.3000 27° Northeast 162 186 6,800  Level FlightAware
08:53AM 38.6250 -76.2970 13° North 150 173 6,800  Level FlightAware
08:53AM 38.6440 -76.2920 12° North 151 174 6,800  Level FlightAware
08:53AM 38.6580 -76.2870 16° North 152 175 6,800  Level FlightAware
08:54AM 38.6700 -76.2830 15° North 152 175 6,800  Level FlightAware
08:54AM 38.6900 -76.2780 11° North 151 174 6,800  Level FlightAware
08:55AM 38.7060 -76.2730 14° North 150 173 6,800  Level FlightAware
08:55AM 38.7240 -76.2760 353° North 149 171 6,800  Level FlightAware
08:55AM 38.7350 -76.2780 352° North 149 171 6,800  Level FlightAware
08:56AM 38.7500 -76.2810 351° North 149 171 6,800  Level FlightAware
08:56AM 38.7620 -76.2840 349° North 149 171 6,800  Level FlightAware
08:56AM 38.7780 -76.2870 352° North 150 173 6,800  Level FlightAware
08:57AM 38.7940 -76.2900 352° North 150 173 6,800  Level FlightAware
08:57AM 38.8090 -76.2930 351° North 150 173 6,800  Level FlightAware
08:57AM 38.8230 -76.2960 351° North 150 173 6,800  Level FlightAware
08:58AM 38.8370 -76.2990 351° North 150 173 6,800  Level FlightAware
08:58AM 38.8560 -76.3030 351° North 150 173 6,800  Level FlightAware
08:58AM 38.8680 -76.3060 349° North 150 173 6,800  Level FlightAware
08:59AM 38.8790 -76.3080 352° North 150 173 6,800  Level FlightAware
08:59AM 38.8930 -76.3110 351° North 149 171 6,800  Level FlightAware
08:59AM 38.9140 -76.3150 352° North 149 171 6,800  Level FlightAware
08:59AM 38.9150 -76.3150 360° North 149 171 6,800  Level FlightAware
09:00AM 38.9470 -76.3220 350° North 149 171 6,800  Level FlightAware
09:00AM 38.9600 -76.3240 353° North 149 171 6,800  Level FlightAware
09:01AM 38.9700 -76.3260 351° North 151 174 6,800  Level FlightAware
09:01AM 38.9840 -76.3290 351° North 150 173 6,800  Level FlightAware
09:01AM 38.9980 -76.3390 331° Northwest 153 176 6,800  Level FlightAware
09:02AM 39.0000 -76.3440 297° West 149 171 6,800  Level FlightAware
09:02AM 39.0050 -76.3540 303° West 152 175 6,800  Level FlightAware
09:02AM 39.0100 -76.3620 309° West 149 171 6,800  Level FlightAware
09:03AM 39.0200 -76.3810 304° West 148 170 6,800  Level FlightAware
09:03AM 39.0330 -76.4040 306° West 148 170 6,800  Level FlightAware
09:03AM 39.0390 -76.4140 308° West 149 171 6,800  Level FlightAware
09:03AM 39.0470 -76.4300 303° West 154 177 6,800  Level FlightAware
09:04AM 39.0560 -76.4460 306° West 154 177 6,800 -240 Level FlightAware
09:04AM 39.0580 -76.4540 288° West 157 181 6,700 -480 Descending FlightAware
09:04AM 39.0590 -76.4690 275° West 162 186 6,600 -480 Descending FlightAware
09:05AM 39.0630 -76.4930 282° West 165 190 6,400 -540 Descending FlightAware
09:05AM 39.0680 -76.5180 284° West 166 191 6,200 -540 Descending FlightAware
09:05AM 39.0710 -76.5370 282° West 166 191 6,000 -540 Descending FlightAware
09:06AM 39.0740 -76.5530 284° West 166 191 5,900 -300 Descending FlightAware
09:06AM 39.0780 -76.5760 283° West 161 185 5,800 -180 Descending FlightAware
09:06AM 39.0810 -76.5950 282° West 157 181 5,800  Level FlightAware
09:07AM 39.0840 -76.6130 282° West 156 180 5,800  Level FlightAware
09:07AM 39.0860 -76.6310 278° West 154 177 5,800  Level FlightAware
09:07AM 39.0890 -76.6490 282° West 154 177 5,800  Level FlightAware
09:08AM 39.0910 -76.6620 281° West 153 176 5,800  Level FlightAware
09:08AM 39.0940 -76.6800 282° West 153 176 5,800  Level FlightAware
09:08AM 39.0960 -76.6920 282° West 153 176 5,800  Level FlightAware
09:09AM 39.0990 -76.7100 282° West 154 177 5,800  Level FlightAware
09:09AM 39.1010 -76.7260 279° West 154 177 5,800  Level FlightAware
09:09AM 39.1040 -76.7470 280° West 152 175 5,800  Level FlightAware
09:10AM 39.1070 -76.7660 282° West 153 176 5,800  Level FlightAware
09:10AM 39.1100 -76.7850 282° West 154 177 5,800  Level FlightAware
09:10AM 39.1130 -76.8020 283° West 154 177 5,800 -240 Level FlightAware
09:10AM 39.1140 -76.8120 277° West 158 182 5,700 -540 Descending FlightAware
09:11AM 39.1180 -76.8350 283° West 163 188 5,500 -480 Descending FlightAware
09:11AM 39.1200 -76.8490 280° West 165 190 5,400 -420 Descending FlightAware
09:11AM 39.1220 -76.8580 286° West 169 194 5,300 -660 Descending FlightAware
09:12AM 39.1250 -76.8780 281° West 175 201 5,000 -960 Descending FlightAware
09:12AM 39.1290 -76.9100 279° West 177 204 4,600 -900 Descending FlightAware
09:12AM 39.1320 -76.9280 282° West 178 205 4,400 -720 Descending FlightAware
09:13AM 39.1360 -76.9540 281° West 178 205 4,100 -840 Descending FlightAware
09:13AM 39.1390 -76.9750 280° West 178 205 3,800 -900 Descending FlightAware
09:13AM 39.1430 -76.9970 283° West 178 205 3,500 -900 Descending FlightAware
09:14AM 39.1460 -77.0180 280° West 178 205 3,200 -840 Descending FlightAware
09:14AM 39.1510 -77.0490 282° West 179 206 2,800 -840 Descending FlightAware
09:15AM 39.1530 -77.0660 279° West 178 205 2,600 -720 Descending FlightAware
09:15AM 39.1560 -77.0830 283° West 173 199 2,400 -840 Descending FlightAware
09:15AM 39.1600 -77.1110 280° West 170 196 2,000 -1,080 Descending FlightAware
09:15AM 39.1630 -77.1200 293° West 165 190 1,800 -1,200 Descending FlightAware
09:16AM 39.1650 -77.1260 293° West 162 186 1,600 -780 Descending FlightAware
09:16AM 39.1740 -77.1450 301° West 143 165 1,400 -480 Descending FlightAware
09:16AM 39.1810 -77.1560 309° West 130 150 1,300 -300 Descending FlightAware
09:17AM 39.1890 -77.1700 306° West 112 129 1,200 -360 Descending FlightAware
09:17AM 39.1890 -77.1740 270° West 106 122 1,100 -780 Descending FlightAware
09:17AM 39.1800 -77.1830 218° Southwest 88 101 800 -840 Descending FlightAware
09:18AM 39.1750 -77.1770 137° Southeast 85 98 500 -720 Descending FlightAware
09:18AM 39.1690 -77.1670 128° Southeast 55 63 300 -540 Descending FlightAware